Airfield :
LOGIN :

Register | Disclaimer

   EN    FR    IT 

 










Legend :    VFR   Marginal VFR   IFR   Intensive IFR   Very Intensive IFR
Visi :
Ceiling :
>= 8 km
>= 3000ft
5 to 8 km
1000 to 3000 ft
1500m to 5 km
500 to 1000 ft
800 to 1500m
200 to 500 ft
< 800m
< 200 ft
Symbols :   Thunderstorms  Fog  Heavy snow  Heavy precipitations  Wind > 20 kt
SIGMETs :     Misc.  Thunderstorms  Icing  Turbulence  Mountain Waves  Volcanic Ashes






- Airport Elevation : 288 ft
- IATA code : BZZ


EGVN - RAF Brize Norton

CURRENT METAR :
  • 271020Z 22004KT 6000 BR FEW003 SCT030 BKN050 08/08 Q1012 TEMPO 3000 -DZ SCT004 RMK WHT TEMPO YLO2

EXPIRED METARs :
  • 270950Z 24005KT 3000 -DZ SCT004 BKN030 08/08 Q1012 TEMPO FEW004 RMK YLO1 TEMPO YLO1
  • 270920Z 24003KT 3000 -DZ SCT004 BKN034 08/08 Q1011 TEMPO FEW004 RMK YLO1 TEMPO YLO1
  • 270850Z 25003KT 3500 BR FEW002 BKN035 08/08 Q1011 TEMPO 2000 -DZ SCT002
  • 270820Z 25004KT 2000 -DZ BKN002 07/07 Q1011 TEMPO 3500 RMK AMB TEMPO YLO1
  • 270750Z 26003KT 3000 -DZ OVC002 07/07 Q1011 TEMPO 4000 BR FEW002 BKN045 RMK AMB TEMPO GRN

TAF TAF EGVN
Valid from the 27 at 06:00 until the 28 at 06:00 UTC


270448Z 2706/2806 26005KT 0700 FG BKN001
TEMPO 2706/2710 4000 BR BKN007
PROB30 2706/2710 9999 NSW FEW007
BECMG 2710/2712 9999 NSW BKN007
TEMPO 2712/2717 3000 -DZ BKN004
TEMPO 2717/2720 2000 RADZ BKN003
BECMG 2720/2723 2000 BR BKN002
PROB40 2720/2805 0500 FG BKN001
BECMG 2803/2806 22015KT



MET'MAP, your aeronautical weather chart ! - Copyright ORBIFLY December 2007 - Disclaimer

ORBIFLY MET'MAP TEAM :

Programming & Development : Alexandra Zaïnal
Concept & original design : Baudouin d'Aumeries
Assistance for programming : Marc-Olivier Méhu
Technical & hardware support : Manuel Goepfert

Contact : metmap@orbifly.com




SOURCES & CREDITS :

   NOAA